createdAt,value
2018-11-01T00:00:33.940Z,9.80
2018-11-01T00:03:07.847Z,6.93
2018-11-01T00:05:41.908Z,8.90
2018-11-01T00:08:15.773Z,7.27
2018-11-01T00:10:49.649Z,9.97
2018-11-01T00:13:23.656Z,6.57
2018-11-01T00:15:57.730Z,6.70
2018-11-01T00:18:32.438Z,9.37
2018-11-01T00:21:07.375Z,7.17
2018-11-01T00:23:41.236Z,7.77
2018-11-01T00:26:15.303Z,8.30
2018-11-01T00:28:49.046Z,8.30
2018-11-01T00:31:23.183Z,5.27
2018-11-01T00:33:56.931Z,6.07
2018-11-01T00:36:30.961Z,7.60
2018-11-01T00:39:06.830Z,7.73
2018-11-01T00:41:40.748Z,8.87
2018-11-01T00:44:14.784Z,8.83
2018-11-01T00:46:48.575Z,6.60
2018-11-01T00:49:22.564Z,9.07
2018-11-01T00:51:56.799Z,8.37
2018-11-01T00:54:31.426Z,5.47
2018-11-01T00:57:05.622Z,9.50
2018-11-01T00:59:39.787Z,7.47
2018-11-01T01:02:13.920Z,5.53
2018-11-01T01:04:47.930Z,7.27
2018-11-01T01:07:21.903Z,8.67
2018-11-01T01:09:55.890Z,5.77
2018-11-01T01:12:29.779Z,7.73
2018-11-01T01:15:03.877Z,4.70
2018-11-01T01:17:37.817Z,6.87
2018-11-01T01:20:13.021Z,5.03
2018-11-01T01:22:47.687Z,5.33
2018-11-01T01:25:21.679Z,7.53
2018-11-01T01:27:55.607Z,5.60
2018-11-01T01:30:29.365Z,6.93
2018-11-01T01:33:03.247Z,4.67
2018-11-01T01:35:37.124Z,9.03
2018-11-01T01:38:11.159Z,8.20
2018-11-01T01:40:45.060Z,4.60
2018-11-01T01:43:18.853Z,7.07
2018-11-01T01:45:52.886Z,10.13
2018-11-01T01:48:26.557Z,8.13
2018-11-01T01:51:00.302Z,9.07
2018-11-01T01:53:34.167Z,8.23
2018-11-01T01:56:07.919Z,6.87
2018-11-01T01:58:41.747Z,7.43
2018-11-01T02:01:15.792Z,5.43
2018-11-01T02:03:49.810Z,7.97
2018-11-01T02:06:23.707Z,6.97
2018-11-01T02:08:57.605Z,6.20
2018-11-01T02:11:32.274Z,6.87
2018-11-01T02:14:06.314Z,7.73
2018-11-01T02:16:40.854Z,8.87
2018-11-01T02:19:14.866Z,6.47
2018-11-01T02:21:48.902Z,5.57
2018-11-01T02:24:23.375Z,6.33
2018-11-01T02:26:57.263Z,8.67
2018-11-01T02:29:31.244Z,7.93
2018-11-01T02:32:06.982Z,7.33
2018-11-01T02:34:41.009Z,6.37
2018-11-01T02:37:15.101Z,4.73
2018-11-01T02:39:48.942Z,9.30
2018-11-01T02:42:22.960Z,7.23
2018-11-01T02:44:57.759Z,5.73
2018-11-01T02:47:31.768Z,7.40
2018-11-01T02:50:05.855Z,8.07
2018-11-01T02:52:39.938Z,6.73
2018-11-01T02:55:13.636Z,9.70
2018-11-01T02:57:48.976Z,7.23
2018-11-01T03:00:23.122Z,7.27
2018-11-01T03:02:57.094Z,8.17
2018-11-01T03:05:31.202Z,6.87
2018-11-01T03:08:05.421Z,6.53
2018-11-01T03:10:39.469Z,7.23
2018-11-01T03:13:13.640Z,7.13
2018-11-01T03:15:47.651Z,9.03
2018-11-01T03:18:21.534Z,6.47
2018-11-01T03:20:55.363Z,9.17
2018-11-01T03:23:29.648Z,5.00
2018-11-01T03:26:03.489Z,8.60
2018-11-01T03:28:37.228Z,8.50
2018-11-01T03:31:11.189Z,6.10
2018-11-01T03:33:45.103Z,7.50
2018-11-01T03:36:18.976Z,8.10
2018-11-01T03:38:53.263Z,9.30
2018-11-01T03:41:27.276Z,7.23
2018-11-01T03:44:01.366Z,10.23
2018-11-01T03:46:35.584Z,9.07
2018-11-01T03:49:09.721Z,8.77
2018-11-01T03:51:43.602Z,7.53
2018-11-01T03:54:17.692Z,10.80
2018-11-01T03:56:51.694Z,6.33
2018-11-01T03:59:25.661Z,8.47
2018-11-01T04:01:59.649Z,9.17
2018-11-01T04:04:33.604Z,8.07
2018-11-01T04:07:07.621Z,9.20
2018-11-01T04:09:41.675Z,10.10
2018-11-01T04:12:15.622Z,8.50
2018-11-01T04:14:49.666Z,7.37
2018-11-01T04:17:23.507Z,7.80
2018-11-01T04:19:57.436Z,8.70
2018-11-01T04:22:31.341Z,7.97
2018-11-01T04:25:05.537Z,8.53
2018-11-01T04:27:39.411Z,6.33
2018-11-01T04:30:13.311Z,8.57
2018-11-01T04:32:47.322Z,8.53
2018-11-01T04:35:21.297Z,10.80
2018-11-01T04:37:55.020Z,9.27
2018-11-01T04:40:28.869Z,7.17
2018-11-01T04:43:02.913Z,6.80
2018-11-01T04:45:36.777Z,7.40
2018-11-01T04:48:10.722Z,8.57
2018-11-01T04:50:44.497Z,8.57
2018-11-01T04:53:18.496Z,7.63
2018-11-01T04:55:52.367Z,10.87
2018-11-01T04:58:26.145Z,8.03
2018-11-01T05:00:59.818Z,9.47
2018-11-01T05:03:33.979Z,7.27
2018-11-01T05:06:07.669Z,8.60
2018-11-01T05:08:41.878Z,7.47
2018-11-01T05:11:15.974Z,7.30
2018-11-01T05:13:49.978Z,8.43
2018-11-01T05:16:24.005Z,8.40
2018-11-01T05:18:57.880Z,8.43
2018-11-01T05:21:31.737Z,8.97
2018-11-01T05:24:05.601Z,9.40
2018-11-01T05:26:39.533Z,9.40
2018-11-01T05:29:13.499Z,7.70
2018-11-01T05:31:47.301Z,8.70
2018-11-01T05:34:21.332Z,10.10
2018-11-01T05:36:55.245Z,8.77
2018-11-01T05:39:29.162Z,12.17
2018-11-01T05:42:03.232Z,8.20
2018-11-01T05:44:37.099Z,7.00
2018-11-01T05:47:11.173Z,8.70
2018-11-01T05:49:44.972Z,7.50
2018-11-01T05:52:18.853Z,7.23
2018-11-01T05:54:52.646Z,7.90
2018-11-01T05:57:26.842Z,12.60
2018-11-01T06:00:00.718Z,10.57
2018-11-01T06:02:38.859Z,6.93
2018-11-01T06:05:12.596Z,6.77
2018-11-01T06:07:55.974Z,8.43
2018-11-01T06:10:29.917Z,9.53
2018-11-01T06:13:03.706Z,8.73
2018-11-01T06:15:37.529Z,9.07
2018-11-01T06:18:11.490Z,7.57
2018-11-01T06:20:45.417Z,8.80
2018-11-01T06:23:19.192Z,10.03
2018-11-01T06:25:53.034Z,9.13
2018-11-01T06:28:26.932Z,8.87
2018-11-01T06:31:00.663Z,7.17
2018-11-01T06:33:34.585Z,6.13
2018-11-01T06:36:11.138Z,9.10
2018-11-01T06:38:44.968Z,7.53
2018-11-01T06:41:18.638Z,8.40
2018-11-01T06:43:52.345Z,10.60
2018-11-01T06:46:26.292Z,11.33
2018-11-01T06:49:00.333Z,8.93
2018-11-01T06:51:34.161Z,10.53
2018-11-01T06:54:08.007Z,10.50
2018-11-01T06:56:41.841Z,13.40
2018-11-01T06:59:15.781Z,8.03
2018-11-01T07:01:49.507Z,8.33
2018-11-01T07:04:23.403Z,11.17
2018-11-01T07:06:57.206Z,8.27
2018-11-01T07:09:31.153Z,9.93
2018-11-01T07:12:05.121Z,9.53
2018-11-01T07:14:38.919Z,6.73
2018-11-01T07:17:13.067Z,9.53
2018-11-01T07:19:46.864Z,11.60
2018-11-01T07:22:20.797Z,7.63
2018-11-01T07:24:54.656Z,11.67
2018-11-01T07:27:28.381Z,8.70
2018-11-01T07:30:02.434Z,7.23
2018-11-01T07:32:36.404Z,9.13
2018-11-01T07:35:11.175Z,11.43
2018-11-01T07:37:45.736Z,9.00
2018-11-01T07:40:19.920Z,10.47
2018-11-01T07:42:53.748Z,8.50
2018-11-01T07:45:27.615Z,10.83
2018-11-01T07:48:01.621Z,11.43
2018-11-01T07:50:35.593Z,9.77
2018-11-01T07:53:09.622Z,11.53
2018-11-01T07:55:43.356Z,12.00
2018-11-01T07:58:17.303Z,8.50
2018-11-01T08:00:51.306Z,7.63
2018-11-01T08:03:25.107Z,9.00
2018-11-01T08:05:59.255Z,7.77
2018-11-01T08:08:33.031Z,12.13
2018-11-01T08:11:07.037Z,9.40
2018-11-01T08:13:41.034Z,10.37
2018-11-01T08:16:14.718Z,7.50
2018-11-01T08:18:48.678Z,10.93
2018-11-01T08:21:22.558Z,11.20
2018-11-01T08:23:56.252Z,11.33
2018-11-01T08:26:30.240Z,12.83
2018-11-01T08:29:04.236Z,8.70
2018-11-01T08:31:38.087Z,9.53
2018-11-01T08:34:11.973Z,13.40
2018-11-01T08:36:45.835Z,12.90
2018-11-01T08:39:19.812Z,14.03
2018-11-01T08:41:53.622Z,7.93
2018-11-01T08:44:27.500Z,12.27
2018-11-01T08:47:01.311Z,18.23
2018-11-01T08:49:35.405Z,11.93
2018-11-01T08:52:09.278Z,7.00
2018-11-01T08:54:43.088Z,6.23
2018-11-01T08:57:16.980Z,10.00
2018-11-01T08:59:51.047Z,9.97
2018-11-01T09:02:24.844Z,10.77
2018-11-01T09:04:58.728Z,10.03
2018-11-01T09:07:32.768Z,9.93
2018-11-01T09:10:07.447Z,8.37
2018-11-01T09:12:41.632Z,8.10
2018-11-01T09:15:16.649Z,16.43
2018-11-01T09:17:50.547Z,10.97
2018-11-01T09:20:24.412Z,11.87
2018-11-01T09:22:58.344Z,9.23
2018-11-01T09:25:32.233Z,14.37
2018-11-01T09:28:06.254Z,10.40
2018-11-01T09:30:40.199Z,12.90
2018-11-01T09:33:13.974Z,6.13
2018-11-01T09:35:47.767Z,9.00
2018-11-01T09:38:21.675Z,13.43
2018-11-01T09:40:55.611Z,13.53
2018-11-01T09:43:29.464Z,12.37
2018-11-01T09:46:03.395Z,8.87
2018-11-01T09:48:37.268Z,10.57
2018-11-01T09:51:11.266Z,11.30
2018-11-01T09:53:45.255Z,12.47
2018-11-01T09:56:19.422Z,14.50
2018-11-01T09:58:53.225Z,9.97
2018-11-01T10:01:27.244Z,8.57
2018-11-01T10:04:01.050Z,10.07
2018-11-01T10:06:34.975Z,14.93
2018-11-01T10:09:09.712Z,11.77
2018-11-01T10:11:43.739Z,7.57
2018-11-01T10:14:17.477Z,10.40
2018-11-01T10:16:51.355Z,10.63
2018-11-01T10:19:25.000Z,9.67
2018-11-01T10:21:58.861Z,16.43
2018-11-01T10:24:32.629Z,8.17
2018-11-01T10:27:06.888Z,12.23
2018-11-01T10:29:40.899Z,12.63
2018-11-01T10:32:14.902Z,11.63
2018-11-01T10:34:48.776Z,9.60
2018-11-01T10:37:22.475Z,13.83
2018-11-01T10:39:56.321Z,12.10
2018-11-01T10:42:30.263Z,13.90
2018-11-01T10:45:04.142Z,10.77
2018-11-01T10:47:38.403Z,14.50
2018-11-01T10:50:14.327Z,14.00
2018-11-01T10:52:48.285Z,17.53
2018-11-01T10:55:22.057Z,13.37
2018-11-01T10:57:55.807Z,14.30
2018-11-01T11:00:35.184Z,12.03
2018-11-01T11:03:08.878Z,15.90
2018-11-01T11:05:42.793Z,13.67
2018-11-01T11:08:16.695Z,13.50
2018-11-01T11:10:50.593Z,14.47
2018-11-01T11:13:24.324Z,12.23
2018-11-01T11:15:58.404Z,13.50
2018-11-01T11:18:32.182Z,13.63
2018-11-01T11:21:06.467Z,11.10
2018-11-01T11:23:39.903Z,9.40
2018-11-01T11:26:13.735Z,12.50
2018-11-01T11:28:47.562Z,9.00
2018-11-01T11:31:21.382Z,11.30
2018-11-01T11:33:55.151Z,12.67
2018-11-01T11:36:30.013Z,15.23
2018-11-01T11:39:04.445Z,7.97
2018-11-01T11:41:38.538Z,13.13
2018-11-01T11:44:12.362Z,10.37
2018-11-01T11:46:46.202Z,10.23
2018-11-01T11:49:20.185Z,8.57
2018-11-01T11:51:54.073Z,10.33
2018-11-01T11:54:27.870Z,12.43
2018-11-01T11:57:01.769Z,11.23
2018-11-01T11:59:35.818Z,11.03
2018-11-01T12:02:09.644Z,9.80
2018-11-01T12:04:43.574Z,11.67
2018-11-01T12:07:17.555Z,11.20
2018-11-01T12:09:51.439Z,13.77
2018-11-01T12:12:25.433Z,13.20
2018-11-01T12:14:59.276Z,11.17
2018-11-01T12:17:33.203Z,10.30
2018-11-01T12:20:07.952Z,12.10
2018-11-01T12:22:41.807Z,11.83
2018-11-01T12:25:15.567Z,7.17
2018-11-01T12:27:49.471Z,8.43
2018-11-01T12:30:23.390Z,8.73
2018-11-01T12:32:57.358Z,8.10
2018-11-01T12:35:31.360Z,13.60
2018-11-01T12:38:06.331Z,9.73
2018-11-01T12:40:40.284Z,12.03
2018-11-01T12:43:14.124Z,13.00
2018-11-01T12:45:47.953Z,10.17
2018-11-01T12:48:21.735Z,14.43
2018-11-01T12:50:55.659Z,10.03
2018-11-01T12:53:29.606Z,9.60
2018-11-01T12:56:03.694Z,11.07
2018-11-01T12:58:37.522Z,11.27
2018-11-01T13:01:11.469Z,12.00
2018-11-01T13:03:45.356Z,12.13
2018-11-01T13:06:18.967Z,10.23
2018-11-01T13:08:52.897Z,10.07
2018-11-01T13:11:26.923Z,14.27
2018-11-01T13:14:00.725Z,16.53
2018-11-01T13:16:34.726Z,11.40
2018-11-01T13:19:08.561Z,10.03
2018-11-01T13:21:42.390Z,8.33
2018-11-01T13:24:16.262Z,10.53
2018-11-01T13:26:50.162Z,9.47
2018-11-01T13:29:24.278Z,7.00
2018-11-01T13:31:58.045Z,11.80
2018-11-01T13:34:32.170Z,10.33
2018-11-01T13:37:05.977Z,10.07
2018-11-01T13:39:40.130Z,9.17
2018-11-01T13:42:13.995Z,7.73
2018-11-01T13:44:47.865Z,14.37
2018-11-01T13:47:21.901Z,14.40
2018-11-01T13:49:55.818Z,25.03
2018-11-01T13:52:29.480Z,19.03
2018-11-01T13:55:03.570Z,10.23
2018-11-01T13:57:37.308Z,5.33
2018-11-01T14:00:12.839Z,10.83
2018-11-01T14:02:46.780Z,15.57
2018-11-01T14:05:20.698Z,10.57
2018-11-01T14:07:54.369Z,10.30
2018-11-01T14:10:28.360Z,13.80
2018-11-01T14:13:02.304Z,11.03
2018-11-01T14:15:36.393Z,6.50
2018-11-01T14:18:10.333Z,10.47
2018-11-01T14:20:44.147Z,8.67
2018-11-01T14:23:18.123Z,13.93
2018-11-01T14:25:51.997Z,11.93
2018-11-01T14:28:26.008Z,12.77
2018-11-01T14:30:59.929Z,13.13
2018-11-01T14:33:33.824Z,14.53
2018-11-01T14:36:07.977Z,10.07
2018-11-01T14:38:41.820Z,9.13
2018-11-01T14:41:15.829Z,10.40
2018-11-01T14:43:49.780Z,12.67
2018-11-01T14:46:23.613Z,17.90
2018-11-01T14:48:57.547Z,13.80
2018-11-01T14:51:31.470Z,11.37
2018-11-01T14:54:05.859Z,15.17
2018-11-01T14:56:41.113Z,8.73
2018-11-01T14:59:14.400Z,15.30
2018-11-01T15:01:47.375Z,10.60
2018-11-01T15:04:21.157Z,13.93
2018-11-01T15:06:55.144Z,12.63
2018-11-01T15:09:29.020Z,15.90
2018-11-01T15:12:02.949Z,9.00
2018-11-01T15:14:36.937Z,13.43
2018-11-01T15:17:11.349Z,9.50
2018-11-01T15:19:45.439Z,10.43
2018-11-01T15:22:19.259Z,7.87
2018-11-01T15:24:53.134Z,10.00
2018-11-01T15:27:26.940Z,9.33
2018-11-01T15:30:00.947Z,12.27
2018-11-01T15:32:34.748Z,10.60
2018-11-01T15:35:08.602Z,11.73
2018-11-01T15:37:42.450Z,8.07
2018-11-01T15:40:16.146Z,9.93
2018-11-01T15:42:50.096Z,9.90
2018-11-01T15:45:24.080Z,10.77
2018-11-01T15:47:58.001Z,9.23
2018-11-01T15:50:31.846Z,10.73
2018-11-01T15:53:05.909Z,10.13
2018-11-01T15:55:39.717Z,7.27
2018-11-01T15:58:13.802Z,11.33
2018-11-01T16:00:47.820Z,11.10
2018-11-01T16:03:21.768Z,12.53
2018-11-01T16:05:55.616Z,11.67
2018-11-01T16:08:29.407Z,13.73
2018-11-01T16:11:03.416Z,7.60
2018-11-01T16:13:37.570Z,9.60
2018-11-01T16:16:12.093Z,9.30
2018-11-01T16:18:50.158Z,12.20
2018-11-01T16:21:24.310Z,9.00
2018-11-01T16:23:58.364Z,12.23
2018-11-01T16:26:32.604Z,10.50
2018-11-01T16:29:07.020Z,9.70
2018-11-01T16:31:42.897Z,12.20
2018-11-01T16:34:18.031Z,11.07
2018-11-01T16:36:55.632Z,10.53
2018-11-01T16:39:30.247Z,9.43
2018-11-01T16:42:05.258Z,9.97
2018-11-01T16:44:40.409Z,10.10
2018-11-01T16:47:19.540Z,8.47
2018-11-01T16:49:56.584Z,11.23
2018-11-01T16:52:46.570Z,11.53
2018-11-01T16:55:26.030Z,12.37
2018-11-01T16:58:00.961Z,11.70
2018-11-01T17:00:45.418Z,8.83
2018-11-01T17:03:48.069Z,10.90
2018-11-01T17:09:08.090Z,6.93
2018-11-01T17:11:42.096Z,9.90
2018-11-01T17:14:16.046Z,9.33
2018-11-01T17:16:49.945Z,7.97
2018-11-01T17:19:23.823Z,8.33
2018-11-01T17:21:57.734Z,6.90
2018-11-01T17:24:31.605Z,9.53
2018-11-01T17:27:06.055Z,9.50
2018-11-01T17:29:40.234Z,9.03
2018-11-01T17:32:14.348Z,8.73
2018-11-01T17:34:48.260Z,8.97
2018-11-01T17:37:22.556Z,10.37
2018-11-01T17:39:56.574Z,6.70
2018-11-01T17:42:30.382Z,8.67
2018-11-01T17:45:04.393Z,6.57
2018-11-01T17:47:38.923Z,8.13
2018-11-01T17:50:14.858Z,10.57
2018-11-01T17:55:29.166Z,8.70
2018-11-01T18:01:23.537Z,9.13
2018-11-01T18:09:57.289Z,5.73
2018-11-01T18:15:39.896Z,8.83
2018-11-01T18:18:14.681Z,8.87
2018-11-01T18:21:00.258Z,5.87
2018-11-01T18:23:39.533Z,8.13
2018-11-01T18:26:13.747Z,9.03
2018-11-01T18:28:54.815Z,6.47
2018-11-01T18:31:30.225Z,7.57
2018-11-01T18:36:42.902Z,11.30
2018-11-01T18:39:22.200Z,6.13
2018-11-01T18:41:56.301Z,5.83
2018-11-01T18:44:30.364Z,6.13
2018-11-01T18:47:04.324Z,5.57
2018-11-01T18:49:38.386Z,6.60
2018-11-01T18:52:15.255Z,6.03
2018-11-01T18:58:04.673Z,6.27
2018-11-01T19:00:48.346Z,5.60
2018-11-01T19:08:57.314Z,6.93
2018-11-01T19:11:32.486Z,5.73
2018-11-01T19:17:10.821Z,6.50
2018-11-01T19:19:45.412Z,6.07
2018-11-01T19:35:25.591Z,5.80
2018-11-01T19:43:54.334Z,6.33
2018-11-01T20:02:31.938Z,8.67
2018-11-01T20:05:08.085Z,11.17
2018-11-01T20:07:42.697Z,12.67
2018-11-01T20:10:33.852Z,15.93
2018-11-01T20:13:08.726Z,15.90
2018-11-01T20:18:21.808Z,15.77
2018-11-01T20:20:56.276Z,15.70
2018-11-01T20:23:32.638Z,16.83
2018-11-01T20:28:58.103Z,20.33
2018-11-01T20:34:09.704Z,20.67
2018-11-01T20:36:45.046Z,20.87
2018-11-01T20:43:04.532Z,25.33
2018-11-01T20:45:47.101Z,25.10
2018-11-01T20:51:39.086Z,25.27
2018-11-01T20:54:17.648Z,25.17
2018-11-01T20:56:52.272Z,25.13
2018-11-01T20:59:26.220Z,27.23
2018-11-01T21:02:01.664Z,25.43
2018-11-01T21:04:36.340Z,23.47
2018-11-01T21:07:10.173Z,22.77
2018-11-01T21:09:44.581Z,24.13
2018-11-01T21:12:18.499Z,21.93
2018-11-01T21:14:52.571Z,22.30
2018-11-01T21:17:26.364Z,23.10
2018-11-01T21:20:00.337Z,21.60
2018-11-01T21:22:35.306Z,23.93
2018-11-01T21:25:10.419Z,20.53
2018-11-01T21:27:44.328Z,20.80
2018-11-01T21:30:18.373Z,20.40
2018-11-01T21:32:52.626Z,20.00
2018-11-01T21:35:26.693Z,19.13
2018-11-01T21:38:02.687Z,20.37
2018-11-01T21:40:36.670Z,19.67
2018-11-01T21:43:10.746Z,19.93
2018-11-01T21:45:45.101Z,19.50
2018-11-01T21:48:19.084Z,20.97
2018-11-01T21:50:54.219Z,19.57
2018-11-01T21:53:28.242Z,19.73
2018-11-01T21:56:02.580Z,20.20
2018-11-01T21:58:37.700Z,21.47
2018-11-01T22:01:11.673Z,20.83
2018-11-01T22:03:45.746Z,22.43
2018-11-01T22:06:19.851Z,21.23
2018-11-01T22:08:53.766Z,22.87
2018-11-01T22:11:27.721Z,22.67
2018-11-01T22:14:02.033Z,22.10
2018-11-01T22:16:36.352Z,22.33
2018-11-01T22:19:10.403Z,25.43
2018-11-01T22:21:44.872Z,25.33
2018-11-01T22:24:18.839Z,23.23
2018-11-01T22:26:52.751Z,23.03
2018-11-01T22:29:27.369Z,22.63
2018-11-01T22:32:01.413Z,21.47
2018-11-01T22:34:35.534Z,21.13
2018-11-01T22:37:09.639Z,21.80
2018-11-01T22:39:43.792Z,24.03
2018-11-01T22:42:23.789Z,21.93
2018-11-01T22:44:57.949Z,22.23
2018-11-01T22:47:31.894Z,21.33
2018-11-01T22:50:06.182Z,24.13
2018-11-01T22:52:40.846Z,21.20
2018-11-01T22:55:14.821Z,23.77
2018-11-01T22:57:48.727Z,22.43
2018-11-01T23:00:22.682Z,22.10
2018-11-01T23:02:56.578Z,22.50
2018-11-01T23:05:30.549Z,22.90
2018-11-01T23:08:04.337Z,22.93
2018-11-01T23:10:38.376Z,22.43
2018-11-01T23:13:12.195Z,23.93
2018-11-01T23:15:46.177Z,22.53
2018-11-01T23:18:20.034Z,23.77
2018-11-01T23:20:54.199Z,22.67
2018-11-01T23:23:28.255Z,22.40
2018-11-01T23:26:02.301Z,24.13
2018-11-01T23:28:36.178Z,22.07
2018-11-01T23:31:10.167Z,24.00
2018-11-01T23:33:44.046Z,22.70
2018-11-01T23:36:17.040Z,24.50
2018-11-01T23:38:56.309Z,25.10
2018-11-01T23:41:35.469Z,22.80
2018-11-01T23:44:14.600Z,23.63
2018-11-01T23:46:53.930Z,24.20
2018-11-01T23:50:08.466Z,23.60
2018-11-01T23:52:44.404Z,28.00
2018-11-01T23:55:18.298Z,25.73
2018-11-01T23:57:52.424Z,27.23
